sensor_id;sensor_type;location;lat;lon;timestamp;P1;durP1;ratioP1;P2;durP2;ratioP2
48205;SDS011;33995;48.202;16.260;2024-03-08T00:00:17;48.80;;;35.47;;
48205;SDS011;33995;48.202;16.260;2024-03-08T00:02:46;53.27;;;35.17;;
48205;SDS011;33995;48.202;16.260;2024-03-08T00:05:14;51.80;;;35.73;;
48205;SDS011;33995;48.202;16.260;2024-03-08T00:07:45;51.67;;;34.83;;
48205;SDS011;33995;48.202;16.260;2024-03-08T00:10:15;50.80;;;35.10;;
48205;SDS011;33995;48.202;16.260;2024-03-08T00:12:44;49.33;;;35.40;;
48205;SDS011;33995;48.202;16.260;2024-03-08T00:15:13;52.37;;;35.17;;
48205;SDS011;33995;48.202;16.260;2024-03-08T00:17:48;50.77;;;35.33;;
48205;SDS011;33995;48.202;16.260;2024-03-08T00:20:16;51.53;;;35.03;;
48205;SDS011;33995;48.202;16.260;2024-03-08T00:22:46;50.47;;;34.70;;
48205;SDS011;33995;48.202;16.260;2024-03-08T00:25:14;47.80;;;33.63;;
48205;SDS011;33995;48.202;16.260;2024-03-08T00:27:43;52.50;;;36.10;;
48205;SDS011;33995;48.202;16.260;2024-03-08T00:30:10;48.93;;;34.70;;
48205;SDS011;33995;48.202;16.260;2024-03-08T00:32:40;50.87;;;35.33;;
48205;SDS011;33995;48.202;16.260;2024-03-08T00:35:09;49.60;;;35.37;;
48205;SDS011;33995;48.202;16.260;2024-03-08T00:37:39;50.53;;;34.93;;
48205;SDS011;33995;48.202;16.260;2024-03-08T00:40:08;50.33;;;35.03;;
48205;SDS011;33995;48.202;16.260;2024-03-08T00:42:37;49.80;;;34.27;;
48205;SDS011;33995;48.202;16.260;2024-03-08T00:45:06;49.80;;;35.47;;
48205;SDS011;33995;48.202;16.260;2024-03-08T00:47:34;48.50;;;34.20;;
48205;SDS011;33995;48.202;16.260;2024-03-08T00:50:01;51.20;;;35.77;;
48205;SDS011;33995;48.202;16.260;2024-03-08T00:52:30;50.00;;;34.17;;
48205;SDS011;33995;48.202;16.260;2024-03-08T00:55:00;51.03;;;35.03;;
48205;SDS011;33995;48.202;16.260;2024-03-08T00:57:28;51.37;;;35.87;;
48205;SDS011;33995;48.202;16.260;2024-03-08T00:59:55;52.80;;;35.17;;
48205;SDS011;33995;48.202;16.260;2024-03-08T01:02:23;50.40;;;34.80;;
48205;SDS011;33995;48.202;16.260;2024-03-08T01:04:52;51.47;;;35.53;;
48205;SDS011;33995;48.202;16.260;2024-03-08T01:07:24;52.67;;;35.70;;
48205;SDS011;33995;48.202;16.260;2024-03-08T01:09:51;51.07;;;35.57;;
48205;SDS011;33995;48.202;16.260;2024-03-08T01:12:19;48.30;;;34.97;;
48205;SDS011;33995;48.202;16.260;2024-03-08T01:14:46;50.27;;;34.83;;
48205;SDS011;33995;48.202;16.260;2024-03-08T01:17:14;51.10;;;36.53;;
48205;SDS011;33995;48.202;16.260;2024-03-08T01:19:41;51.17;;;35.90;;
48205;SDS011;33995;48.202;16.260;2024-03-08T01:22:08;50.57;;;34.60;;
48205;SDS011;33995;48.202;16.260;2024-03-08T01:24:36;50.07;;;36.33;;
48205;SDS011;33995;48.202;16.260;2024-03-08T01:27:03;50.50;;;35.60;;
48205;SDS011;33995;48.202;16.260;2024-03-08T01:29:31;51.27;;;34.87;;
48205;SDS011;33995;48.202;16.260;2024-03-08T01:31:59;53.03;;;35.67;;
48205;SDS011;33995;48.202;16.260;2024-03-08T01:34:28;49.87;;;35.00;;
48205;SDS011;33995;48.202;16.260;2024-03-08T01:36:55;49.40;;;35.43;;
48205;SDS011;33995;48.202;16.260;2024-03-08T01:39:23;51.87;;;36.03;;
48205;SDS011;33995;48.202;16.260;2024-03-08T01:41:50;52.40;;;35.13;;
48205;SDS011;33995;48.202;16.260;2024-03-08T01:44:17;51.73;;;35.73;;
48205;SDS011;33995;48.202;16.260;2024-03-08T01:46:47;51.00;;;36.03;;
48205;SDS011;33995;48.202;16.260;2024-03-08T01:49:19;50.30;;;35.60;;
48205;SDS011;33995;48.202;16.260;2024-03-08T01:51:48;52.63;;;36.07;;
48205;SDS011;33995;48.202;16.260;2024-03-08T01:54:16;52.47;;;36.17;;
48205;SDS011;33995;48.202;16.260;2024-03-08T01:56:45;54.03;;;36.37;;
48205;SDS011;33995;48.202;16.260;2024-03-08T01:59:12;52.93;;;35.70;;
48205;SDS011;33995;48.202;16.260;2024-03-08T02:01:43;50.77;;;35.57;;
48205;SDS011;33995;48.202;16.260;2024-03-08T02:04:14;51.30;;;36.57;;
48205;SDS011;33995;48.202;16.260;2024-03-08T02:06:43;52.60;;;35.77;;
48205;SDS011;33995;48.202;16.260;2024-03-08T02:09:11;52.10;;;35.77;;
48205;SDS011;33995;48.202;16.260;2024-03-08T02:11:41;51.03;;;35.53;;
48205;SDS011;33995;48.202;16.260;2024-03-08T02:14:12;47.77;;;35.17;;
48205;SDS011;33995;48.202;16.260;2024-03-08T02:16:39;49.93;;;35.03;;
48205;SDS011;33995;48.202;16.260;2024-03-08T02:19:06;52.13;;;36.13;;
48205;SDS011;33995;48.202;16.260;2024-03-08T02:21:36;54.60;;;37.00;;
48205;SDS011;33995;48.202;16.260;2024-03-08T02:24:04;55.53;;;37.90;;
48205;SDS011;33995;48.202;16.260;2024-03-08T02:26:33;54.53;;;37.23;;
48205;SDS011;33995;48.202;16.260;2024-03-08T02:29:02;54.47;;;37.53;;
48205;SDS011;33995;48.202;16.260;2024-03-08T02:31:30;53.53;;;36.87;;
48205;SDS011;33995;48.202;16.260;2024-03-08T02:33:57;54.97;;;37.97;;
48205;SDS011;33995;48.202;16.260;2024-03-08T02:36:26;55.47;;;38.53;;
48205;SDS011;33995;48.202;16.260;2024-03-08T02:38:53;51.40;;;37.07;;
48205;SDS011;33995;48.202;16.260;2024-03-08T02:41:22;55.07;;;36.40;;
48205;SDS011;33995;48.202;16.260;2024-03-08T02:43:49;59.47;;;39.03;;
48205;SDS011;33995;48.202;16.260;2024-03-08T02:46:16;53.53;;;35.83;;
48205;SDS011;33995;48.202;16.260;2024-03-08T02:48:44;54.27;;;38.17;;
48205;SDS011;33995;48.202;16.260;2024-03-08T02:51:11;53.83;;;37.23;;
48205;SDS011;33995;48.202;16.260;2024-03-08T02:53:39;57.37;;;36.77;;
48205;SDS011;33995;48.202;16.260;2024-03-08T02:56:06;52.43;;;36.30;;
48205;SDS011;33995;48.202;16.260;2024-03-08T02:58:37;54.17;;;36.90;;
48205;SDS011;33995;48.202;16.260;2024-03-08T03:01:07;56.03;;;36.93;;
48205;SDS011;33995;48.202;16.260;2024-03-08T03:03:35;55.17;;;37.80;;
48205;SDS011;33995;48.202;16.260;2024-03-08T03:06:02;53.83;;;37.70;;
48205;SDS011;33995;48.202;16.260;2024-03-08T03:08:36;53.47;;;36.50;;
48205;SDS011;33995;48.202;16.260;2024-03-08T03:11:05;55.23;;;38.23;;
48205;SDS011;33995;48.202;16.260;2024-03-08T03:13:33;55.73;;;36.90;;
48205;SDS011;33995;48.202;16.260;2024-03-08T03:16:00;55.87;;;36.77;;
48205;SDS011;33995;48.202;16.260;2024-03-08T03:18:27;58.37;;;38.57;;
48205;SDS011;33995;48.202;16.260;2024-03-08T03:20:55;53.70;;;37.47;;
48205;SDS011;33995;48.202;16.260;2024-03-08T03:23:22;54.50;;;38.03;;
48205;SDS011;33995;48.202;16.260;2024-03-08T03:25:49;55.87;;;37.73;;
48205;SDS011;33995;48.202;16.260;2024-03-08T03:28:18;55.03;;;37.07;;
48205;SDS011;33995;48.202;16.260;2024-03-08T03:30:48;58.13;;;38.10;;
48205;SDS011;33995;48.202;16.260;2024-03-08T03:33:15;56.90;;;38.20;;
48205;SDS011;33995;48.202;16.260;2024-03-08T03:35:46;57.33;;;39.27;;
48205;SDS011;33995;48.202;16.260;2024-03-08T03:38:13;55.73;;;38.10;;
48205;SDS011;33995;48.202;16.260;2024-03-08T03:40:43;56.87;;;36.90;;
48205;SDS011;33995;48.202;16.260;2024-03-08T03:43:12;56.67;;;37.47;;
48205;SDS011;33995;48.202;16.260;2024-03-08T03:45:39;56.83;;;38.33;;
48205;SDS011;33995;48.202;16.260;2024-03-08T03:48:08;56.37;;;38.30;;
48205;SDS011;33995;48.202;16.260;2024-03-08T03:50:38;55.20;;;36.77;;
48205;SDS011;33995;48.202;16.260;2024-03-08T03:53:06;55.00;;;36.77;;
48205;SDS011;33995;48.202;16.260;2024-03-08T03:55:34;53.30;;;37.23;;
48205;SDS011;33995;48.202;16.260;2024-03-08T03:58:03;56.73;;;38.97;;
48205;SDS011;33995;48.202;16.260;2024-03-08T04:00:30;54.93;;;37.93;;
48205;SDS011;33995;48.202;16.260;2024-03-08T04:02:57;56.13;;;37.97;;
48205;SDS011;33995;48.202;16.260;2024-03-08T04:05:27;56.40;;;37.93;;
48205;SDS011;33995;48.202;16.260;2024-03-08T04:07:59;54.40;;;37.80;;
48205;SDS011;33995;48.202;16.260;2024-03-08T04:10:27;54.87;;;37.57;;
48205;SDS011;33995;48.202;16.260;2024-03-08T04:12:54;56.27;;;38.30;;
48205;SDS011;33995;48.202;16.260;2024-03-08T04:15:21;57.37;;;38.07;;
48205;SDS011;33995;48.202;16.260;2024-03-08T04:17:48;56.20;;;38.17;;
48205;SDS011;33995;48.202;16.260;2024-03-08T04:20:19;59.47;;;38.60;;
48205;SDS011;33995;48.202;16.260;2024-03-08T04:22:47;55.77;;;37.03;;
48205;SDS011;33995;48.202;16.260;2024-03-08T04:25:16;60.37;;;38.57;;
48205;SDS011;33995;48.202;16.260;2024-03-08T04:27:43;54.47;;;37.20;;
48205;SDS011;33995;48.202;16.260;2024-03-08T04:30:16;58.20;;;38.87;;
48205;SDS011;33995;48.202;16.260;2024-03-08T04:32:47;54.03;;;36.37;;
48205;SDS011;33995;48.202;16.260;2024-03-08T04:35:15;56.30;;;36.90;;
48205;SDS011;33995;48.202;16.260;2024-03-08T04:37:43;58.77;;;38.10;;
48205;SDS011;33995;48.202;16.260;2024-03-08T04:40:13;57.53;;;37.87;;
48205;SDS011;33995;48.202;16.260;2024-03-08T04:42:48;55.00;;;37.30;;
48205;SDS011;33995;48.202;16.260;2024-03-08T04:45:17;57.23;;;38.10;;
48205;SDS011;33995;48.202;16.260;2024-03-08T04:47:45;55.93;;;36.83;;
48205;SDS011;33995;48.202;16.260;2024-03-08T04:50:12;57.20;;;38.27;;
48205;SDS011;33995;48.202;16.260;2024-03-08T04:52:39;61.23;;;40.60;;
48205;SDS011;33995;48.202;16.260;2024-03-08T04:55:06;67.20;;;42.60;;
48205;SDS011;33995;48.202;16.260;2024-03-08T04:57:33;71.93;;;45.40;;
48205;SDS011;33995;48.202;16.260;2024-03-08T05:00:00;79.90;;;48.60;;
48205;SDS011;33995;48.202;16.260;2024-03-08T05:02:29;76.70;;;49.53;;
48205;SDS011;33995;48.202;16.260;2024-03-08T05:04:56;72.67;;;46.50;;
48205;SDS011;33995;48.202;16.260;2024-03-08T05:07:22;60.57;;;41.93;;
48205;SDS011;33995;48.202;16.260;2024-03-08T05:09:50;57.77;;;39.17;;
48205;SDS011;33995;48.202;16.260;2024-03-08T05:12:18;56.53;;;37.90;;
48205;SDS011;33995;48.202;16.260;2024-03-08T05:14:46;59.80;;;38.83;;
48205;SDS011;33995;48.202;16.260;2024-03-08T05:17:17;54.70;;;37.63;;
48205;SDS011;33995;48.202;16.260;2024-03-08T05:19:44;57.47;;;38.33;;
48205;SDS011;33995;48.202;16.260;2024-03-08T05:22:11;55.93;;;37.30;;
48205;SDS011;33995;48.202;16.260;2024-03-08T05:24:39;58.67;;;38.40;;
48205;SDS011;33995;48.202;16.260;2024-03-08T05:27:06;58.30;;;38.90;;
48205;SDS011;33995;48.202;16.260;2024-03-08T05:29:33;61.80;;;38.83;;
48205;SDS011;33995;48.202;16.260;2024-03-08T05:32:01;58.00;;;37.73;;
48205;SDS011;33995;48.202;16.260;2024-03-08T05:34:29;59.33;;;38.53;;
48205;SDS011;33995;48.202;16.260;2024-03-08T05:36:56;59.33;;;38.33;;
48205;SDS011;33995;48.202;16.260;2024-03-08T05:39:24;59.40;;;38.10;;
48205;SDS011;33995;48.202;16.260;2024-03-08T05:41:51;56.67;;;38.47;;
48205;SDS011;33995;48.202;16.260;2024-03-08T05:44:19;54.73;;;37.60;;
48205;SDS011;33995;48.202;16.260;2024-03-08T05:46:46;54.23;;;37.27;;
48205;SDS011;33995;48.202;16.260;2024-03-08T05:49:13;54.93;;;37.73;;
48205;SDS011;33995;48.202;16.260;2024-03-08T05:51:41;59.40;;;39.03;;
48205;SDS011;33995;48.202;16.260;2024-03-08T05:54:09;58.77;;;39.33;;
48205;SDS011;33995;48.202;16.260;2024-03-08T05:56:41;54.93;;;37.40;;
48205;SDS011;33995;48.202;16.260;2024-03-08T05:59:10;56.43;;;37.33;;
48205;SDS011;33995;48.202;16.260;2024-03-08T06:01:37;58.80;;;37.40;;
48205;SDS011;33995;48.202;16.260;2024-03-08T06:04:08;56.53;;;38.17;;
48205;SDS011;33995;48.202;16.260;2024-03-08T06:06:38;57.33;;;37.57;;
48205;SDS011;33995;48.202;16.260;2024-03-08T06:09:06;57.80;;;38.63;;
48205;SDS011;33995;48.202;16.260;2024-03-08T06:11:36;56.97;;;36.87;;
48205;SDS011;33995;48.202;16.260;2024-03-08T06:14:04;55.27;;;36.83;;
48205;SDS011;33995;48.202;16.260;2024-03-08T06:16:33;51.13;;;35.90;;
48205;SDS011;33995;48.202;16.260;2024-03-08T06:19:03;52.87;;;36.47;;
48205;SDS011;33995;48.202;16.260;2024-03-08T06:21:30;51.47;;;36.33;;
48205;SDS011;33995;48.202;16.260;2024-03-08T06:23:58;52.47;;;37.00;;
48205;SDS011;33995;48.202;16.260;2024-03-08T06:26:28;52.93;;;36.13;;
48205;SDS011;33995;48.202;16.260;2024-03-08T06:28:56;53.23;;;36.57;;
48205;SDS011;33995;48.202;16.260;2024-03-08T06:31:24;54.73;;;37.13;;
48205;SDS011;33995;48.202;16.260;2024-03-08T06:33:51;55.53;;;37.57;;
48205;SDS011;33995;48.202;16.260;2024-03-08T06:36:22;55.00;;;37.70;;
48205;SDS011;33995;48.202;16.260;2024-03-08T06:38:49;52.13;;;36.63;;
48205;SDS011;33995;48.202;16.260;2024-03-08T06:41:23;50.17;;;36.47;;
48205;SDS011;33995;48.202;16.260;2024-03-08T06:43:53;54.40;;;37.00;;
48205;SDS011;33995;48.202;16.260;2024-03-08T06:46:24;51.40;;;35.90;;
48205;SDS011;33995;48.202;16.260;2024-03-08T06:48:54;52.03;;;37.07;;
48205;SDS011;33995;48.202;16.260;2024-03-08T06:51:24;51.83;;;36.60;;
48205;SDS011;33995;48.202;16.260;2024-03-08T06:53:51;53.60;;;35.90;;
48205;SDS011;33995;48.202;16.260;2024-03-08T06:56:19;51.43;;;36.87;;
48205;SDS011;33995;48.202;16.260;2024-03-08T06:58:46;54.83;;;37.10;;
48205;SDS011;33995;48.202;16.260;2024-03-08T07:01:19;52.10;;;36.93;;
48205;SDS011;33995;48.202;16.260;2024-03-08T07:03:47;54.50;;;37.60;;
48205;SDS011;33995;48.202;16.260;2024-03-08T07:06:15;52.63;;;36.63;;
48205;SDS011;33995;48.202;16.260;2024-03-08T07:08:44;54.60;;;38.43;;
48205;SDS011;33995;48.202;16.260;2024-03-08T07:11:13;51.63;;;37.27;;
48205;SDS011;33995;48.202;16.260;2024-03-08T07:13:45;51.57;;;37.40;;
48205;SDS011;33995;48.202;16.260;2024-03-08T07:16:13;51.53;;;36.83;;
48205;SDS011;33995;48.202;16.260;2024-03-08T07:18:40;52.53;;;36.87;;
48205;SDS011;33995;48.202;16.260;2024-03-08T07:21:10;51.90;;;36.23;;
48205;SDS011;33995;48.202;16.260;2024-03-08T07:23:38;53.27;;;36.90;;
48205;SDS011;33995;48.202;16.260;2024-03-08T07:26:24;52.57;;;36.40;;
48205;SDS011;33995;48.202;16.260;2024-03-08T07:28:51;55.33;;;37.93;;
48205;SDS011;33995;48.202;16.260;2024-03-08T07:31:18;53.87;;;37.10;;
48205;SDS011;33995;48.202;16.260;2024-03-08T07:34:05;61.80;;;40.00;;
48205;SDS011;33995;48.202;16.260;2024-03-08T07:36:34;55.70;;;38.50;;
48205;SDS011;33995;48.202;16.260;2024-03-08T07:39:04;60.50;;;40.07;;
48205;SDS011;33995;48.202;16.260;2024-03-08T07:41:38;56.23;;;39.23;;
48205;SDS011;33995;48.202;16.260;2024-03-08T07:44:07;55.63;;;38.23;;
48205;SDS011;33995;48.202;16.260;2024-03-08T07:46:37;56.87;;;39.43;;
48205;SDS011;33995;48.202;16.260;2024-03-08T07:49:04;55.80;;;37.90;;
48205;SDS011;33995;48.202;16.260;2024-03-08T07:51:32;54.77;;;37.70;;
48205;SDS011;33995;48.202;16.260;2024-03-08T07:54:01;57.20;;;38.23;;
48205;SDS011;33995;48.202;16.260;2024-03-08T07:56:31;54.40;;;38.47;;
48205;SDS011;33995;48.202;16.260;2024-03-08T07:58:58;55.63;;;38.30;;
48205;SDS011;33995;48.202;16.260;2024-03-08T08:01:30;56.83;;;38.73;;
48205;SDS011;33995;48.202;16.260;2024-03-08T08:04:00;55.07;;;37.87;;
48205;SDS011;33995;48.202;16.260;2024-03-08T08:06:30;52.90;;;36.67;;
48205;SDS011;33995;48.202;16.260;2024-03-08T08:08:59;54.70;;;38.10;;
48205;SDS011;33995;48.202;16.260;2024-03-08T08:11:27;56.67;;;37.47;;
48205;SDS011;33995;48.202;16.260;2024-03-08T08:13:57;53.63;;;36.43;;
48205;SDS011;33995;48.202;16.260;2024-03-08T08:16:28;56.73;;;38.00;;
48205;SDS011;33995;48.202;16.260;2024-03-08T08:18:55;57.73;;;38.90;;
48205;SDS011;33995;48.202;16.260;2024-03-08T08:21:22;59.43;;;39.70;;
48205;SDS011;33995;48.202;16.260;2024-03-08T08:23:51;57.77;;;38.73;;
48205;SDS011;33995;48.202;16.260;2024-03-08T08:26:18;60.30;;;38.97;;
48205;SDS011;33995;48.202;16.260;2024-03-08T08:28:45;60.50;;;39.60;;
48205;SDS011;33995;48.202;16.260;2024-03-08T08:31:13;62.63;;;39.13;;
48205;SDS011;33995;48.202;16.260;2024-03-08T08:34:29;60.93;;;38.20;;
48205;SDS011;33995;48.202;16.260;2024-03-08T08:36:56;64.30;;;39.13;;
48205;SDS011;33995;48.202;16.260;2024-03-08T08:39:23;65.63;;;39.20;;
48205;SDS011;33995;48.202;16.260;2024-03-08T08:41:52;62.93;;;38.17;;
48205;SDS011;33995;48.202;16.260;2024-03-08T08:44:21;64.80;;;38.83;;
48205;SDS011;33995;48.202;16.260;2024-03-08T08:46:48;62.87;;;37.97;;
48205;SDS011;33995;48.202;16.260;2024-03-08T08:49:20;63.93;;;39.27;;
48205;SDS011;33995;48.202;16.260;2024-03-08T08:51:49;65.60;;;39.93;;
48205;SDS011;33995;48.202;16.260;2024-03-08T08:54:19;66.07;;;40.73;;
48205;SDS011;33995;48.202;16.260;2024-03-08T08:56:47;68.83;;;40.97;;
48205;SDS011;33995;48.202;16.260;2024-03-08T08:59:14;73.97;;;42.20;;
48205;SDS011;33995;48.202;16.260;2024-03-08T09:01:45;70.37;;;41.90;;
48205;SDS011;33995;48.202;16.260;2024-03-08T09:04:20;69.80;;;41.10;;
48205;SDS011;33995;48.202;16.260;2024-03-08T09:06:49;73.03;;;42.30;;
48205;SDS011;33995;48.202;16.260;2024-03-08T09:09:16;66.40;;;39.30;;
48205;SDS011;33995;48.202;16.260;2024-03-08T09:11:43;68.60;;;39.13;;
48205;SDS011;33995;48.202;16.260;2024-03-08T09:14:12;70.10;;;40.43;;
48205;SDS011;33995;48.202;16.260;2024-03-08T09:16:40;77.67;;;44.93;;
48205;SDS011;33995;48.202;16.260;2024-03-08T09:19:07;73.90;;;44.03;;
48205;SDS011;33995;48.202;16.260;2024-03-08T09:21:37;72.63;;;43.77;;
48205;SDS011;33995;48.202;16.260;2024-03-08T09:24:05;71.57;;;42.73;;
48205;SDS011;33995;48.202;16.260;2024-03-08T09:26:36;72.70;;;41.53;;
48205;SDS011;33995;48.202;16.260;2024-03-08T09:29:04;73.43;;;42.07;;
48205;SDS011;33995;48.202;16.260;2024-03-08T09:31:33;61.67;;;36.97;;
48205;SDS011;33995;48.202;16.260;2024-03-08T09:34:00;64.80;;;37.30;;
48205;SDS011;33995;48.202;16.260;2024-03-08T09:36:30;62.20;;;36.83;;
48205;SDS011;33995;48.202;16.260;2024-03-08T09:39:00;63.63;;;37.10;;
48205;SDS011;33995;48.202;16.260;2024-03-08T09:41:28;63.33;;;36.90;;
48205;SDS011;33995;48.202;16.260;2024-03-08T09:43:57;59.83;;;35.43;;
48205;SDS011;33995;48.202;16.260;2024-03-08T09:46:26;63.10;;;36.30;;
48205;SDS011;33995;48.202;16.260;2024-03-08T09:48:53;65.80;;;36.97;;
48205;SDS011;33995;48.202;16.260;2024-03-08T09:51:21;62.23;;;35.43;;
48205;SDS011;33995;48.202;16.260;2024-03-08T09:53:54;59.83;;;34.70;;
48205;SDS011;33995;48.202;16.260;2024-03-08T09:56:24;60.23;;;33.90;;
48205;SDS011;33995;48.202;16.260;2024-03-08T09:58:54;69.47;;;37.83;;
48205;SDS011;33995;48.202;16.260;2024-03-08T10:01:43;67.33;;;38.20;;
48205;SDS011;33995;48.202;16.260;2024-03-08T10:04:13;70.47;;;37.93;;
48205;SDS011;33995;48.202;16.260;2024-03-08T10:06:40;66.33;;;37.17;;
48205;SDS011;33995;48.202;16.260;2024-03-08T10:09:07;62.93;;;35.50;;
48205;SDS011;33995;48.202;16.260;2024-03-08T10:11:37;61.03;;;35.50;;
48205;SDS011;33995;48.202;16.260;2024-03-08T10:14:04;62.03;;;34.40;;
48205;SDS011;33995;48.202;16.260;2024-03-08T10:16:40;60.70;;;36.47;;
48205;SDS011;33995;48.202;16.260;2024-03-08T10:19:08;60.80;;;35.50;;
48205;SDS011;33995;48.202;16.260;2024-03-08T10:21:36;61.00;;;34.80;;
48205;SDS011;33995;48.202;16.260;2024-03-08T10:24:20;56.30;;;33.53;;
48205;SDS011;33995;48.202;16.260;2024-03-08T10:26:53;53.80;;;32.13;;
48205;SDS011;33995;48.202;16.260;2024-03-08T10:29:25;61.17;;;33.20;;
48205;SDS011;33995;48.202;16.260;2024-03-08T10:31:52;57.37;;;33.97;;
48205;SDS011;33995;48.202;16.260;2024-03-08T10:34:20;52.27;;;31.23;;
48205;SDS011;33995;48.202;16.260;2024-03-08T10:36:50;43.17;;;27.93;;
48205;SDS011;33995;48.202;16.260;2024-03-08T10:39:22;43.57;;;27.17;;
48205;SDS011;33995;48.202;16.260;2024-03-08T10:41:58;41.97;;;27.33;;
48205;SDS011;33995;48.202;16.260;2024-03-08T10:47:11;37.57;;;24.87;;
48205;SDS011;33995;48.202;16.260;2024-03-08T10:50:01;38.13;;;25.70;;
48205;SDS011;33995;48.202;16.260;2024-03-08T10:52:44;36.70;;;24.27;;
48205;SDS011;33995;48.202;16.260;2024-03-08T10:55:12;39.23;;;24.87;;
48205;SDS011;33995;48.202;16.260;2024-03-08T10:57:40;35.67;;;22.97;;
48205;SDS011;33995;48.202;16.260;2024-03-08T11:00:08;35.03;;;24.67;;
48205;SDS011;33995;48.202;16.260;2024-03-08T11:02:37;32.90;;;23.30;;
48205;SDS011;33995;48.202;16.260;2024-03-08T11:05:05;34.03;;;23.43;;
48205;SDS011;33995;48.202;16.260;2024-03-08T11:07:40;28.90;;;20.70;;
48205;SDS011;33995;48.202;16.260;2024-03-08T11:10:18;27.87;;;20.83;;
48205;SDS011;33995;48.202;16.260;2024-03-08T11:12:50;27.43;;;20.40;;
48205;SDS011;33995;48.202;16.260;2024-03-08T11:15:17;29.40;;;21.27;;
48205;SDS011;33995;48.202;16.260;2024-03-08T11:20:13;28.30;;;20.00;;
48205;SDS011;33995;48.202;16.260;2024-03-08T11:22:48;27.30;;;19.50;;
48205;SDS011;33995;48.202;16.260;2024-03-08T11:25:35;27.10;;;19.77;;
48205;SDS011;33995;48.202;16.260;2024-03-08T11:28:12;27.40;;;19.77;;
48205;SDS011;33995;48.202;16.260;2024-03-08T11:31:27;24.43;;;18.43;;
48205;SDS011;33995;48.202;16.260;2024-03-08T11:33:35;23.33;;;18.27;;
48205;SDS011;33995;48.202;16.260;2024-03-08T11:36:24;26.43;;;18.63;;
48205;SDS011;33995;48.202;16.260;2024-03-08T11:38:52;24.60;;;18.23;;
48205;SDS011;33995;48.202;16.260;2024-03-08T11:41:21;25.50;;;18.50;;
48205;SDS011;33995;48.202;16.260;2024-03-08T11:44:04;24.67;;;17.87;;
48205;SDS011;33995;48.202;16.260;2024-03-08T11:46:33;22.77;;;17.20;;
48205;SDS011;33995;48.202;16.260;2024-03-08T11:49:03;23.93;;;17.13;;
48205;SDS011;33995;48.202;16.260;2024-03-08T11:51:30;20.13;;;15.93;;
48205;SDS011;33995;48.202;16.260;2024-03-08T11:53:58;20.60;;;15.53;;
48205;SDS011;33995;48.202;16.260;2024-03-08T11:56:26;17.57;;;13.40;;
48205;SDS011;33995;48.202;16.260;2024-03-08T11:58:54;17.17;;;13.87;;
48205;SDS011;33995;48.202;16.260;2024-03-08T12:01:26;19.83;;;13.80;;
48205;SDS011;33995;48.202;16.260;2024-03-08T12:03:53;18.17;;;13.90;;
48205;SDS011;33995;48.202;16.260;2024-03-08T12:06:22;16.83;;;13.17;;
48205;SDS011;33995;48.202;16.260;2024-03-08T12:08:49;15.70;;;13.40;;
48205;SDS011;33995;48.202;16.260;2024-03-08T12:11:17;15.67;;;12.57;;
48205;SDS011;33995;48.202;16.260;2024-03-08T12:13:50;16.00;;;12.03;;
48205;SDS011;33995;48.202;16.260;2024-03-08T12:16:21;14.83;;;11.60;;
48205;SDS011;33995;48.202;16.260;2024-03-08T12:18:51;14.70;;;12.10;;
48205;SDS011;33995;48.202;16.260;2024-03-08T12:21:20;16.10;;;11.90;;
48205;SDS011;33995;48.202;16.260;2024-03-08T12:24:07;16.13;;;12.33;;
48205;SDS011;33995;48.202;16.260;2024-03-08T12:26:40;14.53;;;12.60;;
48205;SDS011;33995;48.202;16.260;2024-03-08T12:32:05;18.53;;;13.60;;
48205;SDS011;33995;48.202;16.260;2024-03-08T12:34:33;18.67;;;14.97;;
48205;SDS011;33995;48.202;16.260;2024-03-08T12:37:01;19.33;;;14.57;;
48205;SDS011;33995;48.202;16.260;2024-03-08T12:39:29;18.20;;;14.67;;
48205;SDS011;33995;48.202;16.260;2024-03-08T12:41:56;18.37;;;14.17;;
48205;SDS011;33995;48.202;16.260;2024-03-08T12:44:24;18.97;;;14.73;;
48205;SDS011;33995;48.202;16.260;2024-03-08T12:46:52;18.93;;;14.80;;
48205;SDS011;33995;48.202;16.260;2024-03-08T12:49:21;21.73;;;15.50;;
48205;SDS011;33995;48.202;16.260;2024-03-08T12:51:52;18.33;;;15.13;;
48205;SDS011;33995;48.202;16.260;2024-03-08T12:54:20;18.43;;;14.70;;
48205;SDS011;33995;48.202;16.260;2024-03-08T12:56:51;19.53;;;14.77;;
48205;SDS011;33995;48.202;16.260;2024-03-08T12:59:24;19.53;;;15.20;;
48205;SDS011;33995;48.202;16.260;2024-03-08T13:01:51;19.27;;;15.77;;
48205;SDS011;33995;48.202;16.260;2024-03-08T13:04:20;18.23;;;15.60;;
48205;SDS011;33995;48.202;16.260;2024-03-08T13:06:49;21.17;;;16.43;;
48205;SDS011;33995;48.202;16.260;2024-03-08T13:09:23;20.00;;;15.43;;
48205;SDS011;33995;48.202;16.260;2024-03-08T13:11:54;20.33;;;15.20;;
48205;SDS011;33995;48.202;16.260;2024-03-08T13:14:24;20.47;;;15.63;;
48205;SDS011;33995;48.202;16.260;2024-03-08T13:16:52;18.83;;;15.20;;
48205;SDS011;33995;48.202;16.260;2024-03-08T13:19:21;19.90;;;15.27;;
48205;SDS011;33995;48.202;16.260;2024-03-08T13:21:48;20.70;;;15.83;;
48205;SDS011;33995;48.202;16.260;2024-03-08T13:24:16;18.30;;;14.87;;
48205;SDS011;33995;48.202;16.260;2024-03-08T13:26:45;18.37;;;14.47;;
48205;SDS011;33995;48.202;16.260;2024-03-08T13:29:14;17.67;;;13.83;;
48205;SDS011;33995;48.202;16.260;2024-03-08T13:31:41;18.57;;;13.80;;
48205;SDS011;33995;48.202;16.260;2024-03-08T13:34:11;18.47;;;14.50;;
48205;SDS011;33995;48.202;16.260;2024-03-08T13:36:39;16.67;;;14.23;;
48205;SDS011;33995;48.202;16.260;2024-03-08T13:39:10;19.03;;;14.70;;
48205;SDS011;33995;48.202;16.260;2024-03-08T13:41:42;16.97;;;13.93;;
48205;SDS011;33995;48.202;16.260;2024-03-08T13:44:10;16.63;;;13.90;;
48205;SDS011;33995;48.202;16.260;2024-03-08T13:46:37;17.33;;;14.17;;
48205;SDS011;33995;48.202;16.260;2024-03-08T13:49:05;18.33;;;14.10;;
48205;SDS011;33995;48.202;16.260;2024-03-08T13:51:35;15.57;;;13.03;;
48205;SDS011;33995;48.202;16.260;2024-03-08T13:54:02;15.37;;;13.23;;
48205;SDS011;33995;48.202;16.260;2024-03-08T13:56:33;16.97;;;13.00;;
48205;SDS011;33995;48.202;16.260;2024-03-08T13:59:01;15.90;;;13.27;;
48205;SDS011;33995;48.202;16.260;2024-03-08T14:01:29;15.67;;;13.40;;
48205;SDS011;33995;48.202;16.260;2024-03-08T14:04:01;17.70;;;15.47;;
48205;SDS011;33995;48.202;16.260;2024-03-08T14:06:33;16.57;;;12.90;;
48205;SDS011;33995;48.202;16.260;2024-03-08T14:09:05;16.10;;;13.37;;
48205;SDS011;33995;48.202;16.260;2024-03-08T14:11:34;15.17;;;13.37;;
48205;SDS011;33995;48.202;16.260;2024-03-08T14:14:01;15.63;;;13.77;;
48205;SDS011;33995;48.202;16.260;2024-03-08T14:16:28;16.50;;;13.47;;
48205;SDS011;33995;48.202;16.260;2024-03-08T14:18:55;15.97;;;13.70;;
48205;SDS011;33995;48.202;16.260;2024-03-08T14:21:22;16.63;;;13.47;;
48205;SDS011;33995;48.202;16.260;2024-03-08T14:23:49;16.23;;;12.90;;
48205;SDS011;33995;48.202;16.260;2024-03-08T14:26:19;15.57;;;13.30;;
48205;SDS011;33995;48.202;16.260;2024-03-08T14:28:47;16.90;;;13.17;;